Time;durP1;ratioP1;P1;durP2;ratioP2;P2;SDS_P1;SDS_P2;PMS_P1;PMS_P2;Temp;Humidity;BMP_temperature;BMP_pressure;BME280_temperature;BME280_humidity;BME280_pressure;Samples;Min_cycle;Max_cycle;Signal;HPM_P1;HPM_P2
2023/09/09 00:00:57;;;;;;;10.25;9.25;;;;;;;;;;5031648;28;20034;-71
2023/09/09 00:03:24;;;;;;;11.40;10.05;;;;;;;;;;5031288;28;20335;-71
2023/09/09 00:05:50;;;;;;;13.18;10.32;;;;;;;;;;5030593;28;20060;-71
2023/09/09 00:08:18;;;;;;;15.18;10.77;;;;;;;;;;5031163;28;20429;-70
2023/09/09 00:10:45;;;;;;;11.45;10.27;;;;;;;;;;5030696;28;20029;-71
2023/09/09 00:13:11;;;;;;;12.52;11.23;;;;;;;;;;5030791;28;20537;-71
2023/09/09 00:15:37;;;;;;;11.82;10.00;;;;;;;;;;5025076;28;20105;-71
2023/09/09 00:18:03;;;;;;;11.95;10.20;;;;;;;;;;5030989;28;20041;-71
2023/09/09 00:20:40;;;;;;;12.82;10.43;;;;;;;;;;5031240;28;20021;-72
2023/09/09 00:23:09;;;;;;;10.85;9.75;;;;;;;;;;5030647;28;20053;-71
2023/09/09 00:25:39;;;;;;;11.35;10.18;;;18.00;99.90;;;;;;5030168;28;20049;-71
2023/09/09 00:28:06;;;;;;;11.13;10.02;;;18.00;99.90;;;;;;5030823;28;20421;-71
2023/09/09 00:30:32;;;;;;;10.88;9.70;;;17.90;99.90;;;;;;5030259;28;20048;-72
2023/09/09 00:32:58;;;;;;;11.10;10.00;;;17.90;99.90;;;;;;5027030;28;20036;-70
2023/09/09 00:35:24;;;;;;;12.27;10.80;;;17.80;99.90;;;;;;5030850;28;20021;-70
2023/09/09 00:37:50;;;;;;;11.95;10.75;;;17.80;99.90;;;;;;5029835;28;20041;-70
2023/09/09 00:40:15;;;;;;;11.93;10.68;;;17.80;99.90;;;;;;5030814;28;20026;-70
2023/09/09 00:42:41;;;;;;;15.27;9.73;;;17.80;99.90;;;;;;5030092;28;20370;-70
2023/09/09 00:45:07;;;;;;;10.73;9.63;;;17.70;99.90;;;;;;5030774;28;20121;-71
2023/09/09 00:47:34;;;;;;;10.32;9.20;;;17.70;99.90;;;;;;5030367;28;20033;-72
2023/09/09 00:49:59;;;;;;;11.10;9.60;;;17.70;99.90;;;;;;5029089;28;20394;-70
2023/09/09 00:52:26;;;;;;;11.52;10.13;;;17.70;99.90;;;;;;5028713;28;20033;-70
2023/09/09 00:54:52;;;;;;;11.50;9.07;;;17.60;99.90;;;;;;5029609;28;20093;-71
2023/09/09 00:57:18;;;;;;;10.43;9.18;;;17.70;99.90;;;;;;5030842;28;20132;-70
2023/09/09 00:59:44;;;;;;;11.25;10.00;;;17.60;99.90;;;;;;5029194;28;20033;-70
2023/09/09 01:02:10;;;;;;;11.05;9.95;;;17.50;99.90;;;;;;5030952;28;20036;-70
2023/09/09 01:04:36;;;;;;;13.50;10.68;;;17.50;99.90;;;;;;5029413;28;20033;-71
2023/09/09 01:07:03;;;;;;;11.68;9.93;;;17.50;99.90;;;;;;5030791;28;20061;-70
2023/09/09 01:09:33;;;;;;;12.05;9.77;;;17.50;99.90;;;;;;5025836;28;20025;-71
2023/09/09 01:11:59;;;;;;;;;;;17.40;99.90;;;;;;5031149;28;20034;-70
2023/09/09 01:14:25;;;;;;;10.98;9.88;;;17.40;99.90;;;;;;5030375;28;20247;-70
2023/09/09 01:16:55;;;;;;;11.55;10.25;;;17.40;99.90;;;;;;5029709;28;20700;-70
2023/09/09 01:19:23;;;;;;;;;;;17.30;99.90;;;;;;5030618;28;20052;-70
2023/09/09 01:21:50;;;;;;;10.95;9.85;;;17.30;99.90;;;;;;5029890;28;19911;-71
2023/09/09 01:24:16;;;;;;;11.60;9.75;;;17.30;99.90;;;;;;5026265;28;20072;-70
2023/09/09 01:26:45;;;;;;;10.93;9.82;;;17.30;99.90;;;;;;5028124;28;20121;-70
2023/09/09 01:29:11;;;;;;;12.50;10.15;;;17.30;99.90;;;;;;5032633;28;20025;-70
2023/09/09 01:31:37;;;;;;;11.07;9.95;;;17.30;99.90;;;;;;5015283;28;20122;-70
2023/09/09 01:34:03;;;;;;;11.68;10.48;;;17.20;99.90;;;;;;5033369;28;20482;-70
2023/09/09 01:36:28;;;;;;;11.25;10.10;;;17.20;99.90;;;;;;5033763;28;20057;-71
2023/09/09 01:38:54;;;;;;;12.52;11.25;;;17.20;99.90;;;;;;5033134;28;20032;-70
2023/09/09 01:41:20;;;;;;;10.75;9.65;;;17.20;99.90;;;;;;5034130;28;20319;-71
2023/09/09 01:43:45;;;;;;;10.55;9.48;;;17.10;99.90;;;;;;5028922;28;20076;-70
2023/09/09 01:46:11;;;;;;;10.65;9.50;;;17.10;99.90;;;;;;5033714;28;20387;-70
2023/09/09 01:48:37;;;;;;;10.82;9.73;;;17.10;99.90;;;;;;5032347;28;20026;-71
2023/09/09 01:51:02;;;;;;;11.20;9.43;;;17.10;99.90;;;;;;5033807;28;20121;-70
2023/09/09 01:53:28;;;;;;;12.07;9.95;;;17.10;99.90;;;;;;5033008;28;20435;-71
2023/09/09 01:55:56;;;;;;;12.48;10.25;;;17.10;99.90;;;;;;5033001;28;20030;-70
2023/09/09 01:58:22;;;;;;;11.25;10.02;;;17.10;99.90;;;;;;5033361;28;20064;-70
2023/09/09 02:00:48;;;;;;;11.80;10.40;;;17.00;99.90;;;;;;5024445;28;20066;-70
2023/09/09 02:03:13;;;;;;;12.70;10.85;;;17.00;99.90;;;;;;5033091;28;20029;-70
2023/09/09 02:05:39;;;;;;;11.85;10.65;;;17.00;99.90;;;;;;5032597;28;20021;-70
2023/09/09 02:08:05;;;;;;;13.57;11.10;;;17.00;99.90;;;;;;5032786;28;20102;-70
2023/09/09 02:10:31;;;;;;;11.63;10.52;;;17.00;99.90;;;;;;5032793;28;20034;-71
2023/09/09 02:12:56;;;;;;;11.88;10.60;;;16.90;99.90;;;;;;5032774;28;20390;-70
2023/09/09 02:15:22;;;;;;;11.18;9.32;;;17.00;99.90;;;;;;5033346;28;20099;-70
2023/09/09 02:17:47;;;;;;;11.65;10.45;;;17.00;99.90;;;;;;5028238;28;20465;-70
2023/09/09 02:20:13;;;;;;;13.20;11.07;;;16.90;99.90;;;;;;5029799;28;20041;-70
2023/09/09 02:22:39;;;;;;;11.88;10.68;;;16.90;99.90;;;;;;5013660;28;20099;-70
2023/09/09 02:25:06;;;;;;;13.25;10.82;;;16.90;99.90;;;;;;5033056;28;20173;-70
2023/09/09 02:27:32;;;;;;;12.75;11.05;;;16.80;99.90;;;;;;5032207;28;20033;-71
2023/09/09 02:29:58;;;;;;;11.20;10.10;;;16.90;99.90;;;;;;5032927;28;20033;-70
2023/09/09 02:32:23;;;;;;;12.10;10.60;;;16.80;99.90;;;;;;5031156;28;20400;-71
2023/09/09 02:34:49;;;;;;;12.35;10.52;;;16.80;99.90;;;;;;5029206;28;20430;-70
2023/09/09 02:37:23;;;;;;;12.13;10.85;;;16.80;99.90;;;;;;5032624;28;20029;-70
2023/09/09 02:39:50;;;;;;;12.48;11.15;;;16.80;99.90;;;;;;5031272;28;20029;-69
2023/09/09 02:42:21;;;;;;;14.80;12.30;;;16.70;99.90;;;;;;5032609;28;20033;-70
2023/09/09 02:44:47;;;;;;;;;;;16.70;99.90;;;;;;5031778;28;20029;-70
2023/09/09 02:47:13;;;;;;;14.77;11.50;;;16.70;99.90;;;;;;5032560;28;19916;-70
2023/09/09 02:49:39;;;;;;;13.30;11.68;;;16.70;99.90;;;;;;5027140;28;20390;-70
2023/09/09 02:52:06;;;;;;;13.75;11.02;;;16.60;99.90;;;;;;5032150;28;20408;-70
2023/09/09 02:54:33;;;;;;;12.18;10.85;;;16.60;99.90;;;;;;5031533;28;20045;-71
2023/09/09 02:56:58;;;;;;;13.48;10.75;;;16.60;99.90;;;;;;5016394;28;20099;-70
2023/09/09 02:59:24;;;;;;;12.40;10.70;;;16.60;99.90;;;;;;5028315;28;20076;-70
2023/09/09 03:01:50;;;;;;;14.27;11.95;;;16.60;99.90;;;;;;5031236;28;20041;-70
2023/09/09 03:04:15;;;;;;;15.25;11.60;;;16.60;99.90;;;;;;5031659;28;20037;-70
2023/09/09 03:06:41;;;;;;;13.07;11.35;;;16.60;99.90;;;;;;5031653;28;20038;-71
2023/09/09 03:09:06;;;;;;;13.07;11.63;;;16.70;99.90;;;;;;5031606;28;20386;-70
2023/09/09 03:11:32;;;;;;;11.88;10.73;;;16.70;99.90;;;;;;5031440;28;20034;-71
2023/09/09 03:13:58;;;;;;;11.55;10.40;;;16.70;99.90;;;;;;5027640;28;20118;-70
2023/09/09 03:16:24;;;;;;;13.73;10.90;;;16.70;99.90;;;;;;5031855;28;20029;-70
2023/09/09 03:18:50;;;;;;;12.80;11.45;;;16.70;99.90;;;;;;5030704;28;20105;-70
2023/09/09 03:21:16;;;;;;;12.68;11.15;;;16.70;99.90;;;;;;5032191;28;20347;-70
2023/09/09 03:23:42;;;;;;;12.35;11.05;;;16.70;99.90;;;;;;5030147;28;20132;-70
2023/09/09 03:26:09;;;;;;;14.27;12.73;;;16.70;99.90;;;;;;5031770;28;20438;-70
2023/09/09 03:28:34;;;;;;;15.40;13.25;;;16.70;99.90;;;;;;5026464;28;20488;-71
2023/09/09 03:31:00;;;;;;;15.45;12.32;;;16.70;99.90;;;;;;5031910;28;20037;-71
2023/09/09 03:33:30;;;;;;;13.00;11.60;;;16.70;99.90;;;;;;5031134;28;20129;-70
2023/09/09 03:35:56;;;;;;;;;;;16.70;99.90;;;;;;5031628;28;20584;-70
2023/09/09 03:38:22;;;;;;;14.00;12.52;;;16.70;99.90;;;;;;5030580;28;20095;-70
2023/09/09 03:40:47;;;;;;;14.93;11.70;;;16.70;99.90;;;;;;5031375;28;20033;-70
2023/09/09 03:43:14;;;;;;;12.70;11.40;;;16.70;99.90;;;;;;5030889;28;20030;-70
2023/09/09 03:45:39;;;;;;;13.27;11.70;;;16.80;99.90;;;;;;5027234;28;20021;-70
2023/09/09 03:48:05;;;;;;;16.20;12.85;;;16.80;99.90;;;;;;5030479;28;20533;-70
2023/09/09 03:50:31;;;;;;;14.10;12.60;;;16.80;99.90;;;;;;5030772;28;20032;-72
2023/09/09 03:52:57;;;;;;;13.00;11.68;;;16.80;99.90;;;;;;5030707;28;20545;-70
2023/09/09 03:55:23;;;;;;;12.13;10.88;;;16.80;99.90;;;;;;5031571;28;20030;-70
2023/09/09 03:57:48;;;;;;;13.10;11.70;;;16.80;99.90;;;;;;5029973;28;20041;-70
2023/09/09 04:00:14;;;;;;;13.35;11.98;;;16.80;99.90;;;;;;5031541;28;20104;-70
2023/09/09 04:02:40;;;;;;;13.30;11.88;;;16.70;99.90;;;;;;5026134;28;20105;-70
2023/09/09 04:05:07;;;;;;;13.57;12.10;;;16.70;99.90;;;;;;5031329;28;20029;-70
2023/09/09 04:07:35;;;;;;;13.32;11.93;;;16.70;99.90;;;;;;5029664;28;20068;-72
2023/09/09 04:10:05;;;;;;;13.27;11.98;;;16.60;99.90;;;;;;5028719;28;20041;-70
2023/09/09 04:12:31;;;;;;;14.25;12.75;;;;;;;;;;5030524;28;20021;-71
2023/09/09 04:14:56;;;;;;;17.42;13.13;;;16.60;99.90;;;;;;5029937;28;20021;-70
2023/09/09 04:17:22;;;;;;;13.35;11.98;;;16.60;99.90;;;;;;5027526;28;20382;-70
2023/09/09 04:19:48;;;;;;;13.25;11.85;;;16.50;99.90;;;;;;5026276;28;20347;-70
2023/09/09 04:22:13;;;;;;;14.98;13.45;;;16.50;99.90;;;;;;5031184;28;20441;-70
2023/09/09 04:24:39;;;;;;;14.60;11.63;;;16.50;99.90;;;;;;5029532;28;20049;-70
2023/09/09 04:27:05;;;;;;;13.63;12.00;;;16.50;99.90;;;;;;5013319;28;20057;-70
2023/09/09 04:29:31;;;;;;;15.05;11.77;;;16.50;99.90;;;;;;5030510;28;20036;-72
2023/09/09 04:31:57;;;;;;;16.05;13.80;;;16.50;99.90;;;;;;5030529;28;20025;-70
2023/09/09 04:34:23;;;;;;;16.80;13.25;;;16.50;99.90;;;;;;5026947;28;20104;-70
2023/09/09 04:36:48;;;;;;;14.73;13.18;;;16.50;99.90;;;;;;5030325;28;20132;-70
2023/09/09 04:39:15;;;;;;;16.45;12.93;;;16.60;99.90;;;;;;5030804;28;20116;-70
2023/09/09 04:41:41;;;;;;;14.60;12.70;;;16.60;99.90;;;;;;5030272;28;20057;-70
2023/09/09 04:44:07;;;;;;;14.27;12.77;;;16.60;99.90;;;;;;5030230;28;20029;-70
2023/09/09 04:46:32;;;;;;;14.68;12.68;;;16.70;99.90;;;;;;5029979;28;20084;-72
2023/09/09 04:48:58;;;;;;;14.20;12.45;;;16.70;99.90;;;;;;5030114;28;20029;-70
2023/09/09 04:51:24;;;;;;;14.93;12.63;;;16.70;99.90;;;;;;5027013;28;20041;-70
2023/09/09 04:53:50;;;;;;;14.30;12.90;;;16.70;99.90;;;;;;5022679;28;20091;-70
2023/09/09 04:56:16;;;;;;;13.18;11.73;;;16.70;99.90;;;;;;5030581;28;20037;-70
2023/09/09 04:58:41;;;;;;;13.70;11.93;;;16.70;99.90;;;;;;5029633;28;20470;-70
2023/09/09 05:01:07;;;;;;;12.38;11.05;;;16.60;99.90;;;;;;5030900;28;20459;-70
2023/09/09 05:03:33;;;;;;;12.80;11.13;;;16.60;99.90;;;;;;5032717;28;20022;-72
2023/09/09 05:05:58;;;;;;;16.00;12.63;;;16.60;99.90;;;;;;5034470;28;20397;-70
2023/09/09 05:08:24;;;;;;;16.90;14.25;;;16.60;99.90;;;;;;5030095;28;20040;-71
2023/09/09 05:10:49;;;;;;;14.73;13.15;;;16.60;99.90;;;;;;5033576;28;20582;-71
2023/09/09 05:13:15;;;;;;;14.43;12.88;;;16.60;99.90;;;;;;5033872;28;20051;-70
2023/09/09 05:15:41;;;;;;;13.80;12.35;;;16.60;99.90;;;;;;5033437;28;20029;-72
2023/09/09 05:18:06;;;;;;;15.55;12.80;;;16.60;99.90;;;;;;5033686;28;20104;-70
2023/09/09 05:20:32;;;;;;;14.23;12.73;;;16.50;99.90;;;;;;5033305;28;20030;-73
2023/09/09 05:22:57;;;;;;;14.07;12.57;;;16.60;99.90;;;;;;5033196;28;20384;-72
2023/09/09 05:25:23;;;;;;;14.40;12.85;;;16.60;99.90;;;;;;5034269;28;20108;-72
2023/09/09 05:27:48;;;;;;;16.88;13.00;;;16.70;99.90;;;;;;5026767;28;20041;-73
2023/09/09 05:30:14;;;;;;;14.65;13.05;;;16.70;99.90;;;;;;5029799;28;20084;-71
2023/09/09 05:32:40;;;;;;;15.27;12.10;;;16.80;99.90;;;;;;5028418;28;20040;-71
2023/09/09 05:35:06;;;;;;;15.80;13.55;;;16.90;99.90;;;;;;5033690;28;20026;-69
2023/09/09 05:37:32;;;;;;;18.98;13.38;;;16.90;99.90;;;;;;5033187;28;20040;-71
2023/09/09 05:39:58;;;;;;;22.52;13.05;;;17.10;99.90;;;;;;5032998;28;20037;-71
2023/09/09 05:42:23;;;;;;;14.07;12.20;;;17.20;99.90;;;;;;5033487;28;20072;-70
2023/09/09 05:44:49;;;;;;;15.02;11.25;;;17.30;99.90;;;;;;5032489;28;20033;-70
2023/09/09 05:47:15;;;;;;;13.48;11.63;;;17.40;99.90;;;;;;5033383;28;20048;-71
2023/09/09 05:49:40;;;;;;;12.48;11.05;;;17.50;99.90;;;;;;5027483;28;20025;-71
2023/09/09 05:52:07;;;;;;;15.50;13.82;;;17.50;99.90;;;;;;5033220;28;20084;-70
2023/09/09 05:54:32;;;;;;;15.50;12.32;;;17.60;99.90;;;;;;5032080;28;20029;-72
2023/09/09 05:56:58;;;;;;;16.80;12.85;;;17.70;99.90;;;;;;5033320;28;20354;-69
2023/09/09 05:59:24;;;;;;;15.15;13.50;;;17.70;99.90;;;;;;5032365;28;20025;-71
2023/09/09 06:01:49;;;;;;;14.02;12.52;;;17.80;99.90;;;;;;5032993;28;20629;-70
2023/09/09 06:04:18;;;;;;;13.65;12.07;;;17.80;99.90;;;;;;5032734;28;20029;-69
2023/09/09 06:06:44;;;;;;;13.30;11.90;;;17.90;99.90;;;;;;5028310;28;20401;-70
2023/09/09 06:09:10;;;;;;;13.73;12.25;;;17.90;99.90;;;;;;5032923;28;20022;-70
2023/09/09 06:11:36;;;;;;;13.23;11.82;;;18.00;99.90;;;;;;5032229;28;20034;-70
2023/09/09 06:14:01;;;;;;;15.93;12.95;;;18.00;99.90;;;;;;5031835;28;20037;-71
2023/09/09 06:16:27;;;;;;;13.48;12.07;;;18.10;99.90;;;;;;5032835;28;20029;-71
2023/09/09 06:18:52;;;;;;;12.68;11.32;;;18.20;99.90;;;;;;5031635;28;20037;-71
2023/09/09 06:21:20;;;;;;;12.70;11.32;;;18.30;99.90;;;;;;5028325;28;20037;-71
2023/09/09 06:23:46;;;;;;;12.73;11.43;;;18.40;99.90;;;;;;5029126;28;20144;-71
2023/09/09 06:26:11;;;;;;;13.85;11.70;;;18.50;99.90;;;;;;5032946;28;20085;-69
2023/09/09 06:28:37;;;;;;;13.65;12.25;;;18.60;99.90;;;;;;5031579;28;20064;-71
2023/09/09 06:31:03;;;;;;;18.42;13.63;;;18.60;99.90;;;;;;5032505;28;20053;-70
2023/09/09 06:33:29;;;;;;;16.17;13.73;;;18.70;99.90;;;;;;5032078;28;20033;-71
2023/09/09 06:35:55;;;;;;;16.73;14.40;;;18.80;99.90;;;;;;5031650;28;20076;-70
2023/09/09 06:38:21;;;;;;;16.17;13.68;;;18.90;99.90;;;;;;5032194;28;20057;-69
2023/09/09 06:40:47;;;;;;;14.70;13.18;;;19.10;99.90;;;;;;5027367;28;20021;-70
2023/09/09 06:43:17;;;;;;;15.98;14.00;;;19.10;99.90;;;;;;5031697;28;20064;-70
2023/09/09 06:45:42;;;;;;;15.67;14.00;;;19.20;99.90;;;;;;5031553;28;20026;-71
2023/09/09 06:48:08;;;;;;;14.18;12.68;;;19.40;99.90;;;;;;5032171;28;20079;-71
2023/09/09 06:50:33;;;;;;;17.23;14.30;;;19.50;99.90;;;;;;5032046;28;20101;-72
2023/09/09 06:52:59;;;;;;;16.95;13.45;;;19.60;99.90;;;;;;5031950;28;20025;-71
2023/09/09 06:55:25;;;;;;;16.63;13.40;;;19.70;99.90;;;;;;5034015;28;20108;-71
2023/09/09 06:57:50;;;;;;;16.58;12.82;;;19.80;99.90;;;;;;5027289;28;20033;-71
2023/09/09 07:00:16;;;;;;;16.50;11.63;;;19.90;99.90;;;;;;5023797;28;20100;-71
2023/09/09 07:02:42;;;;;;;16.17;12.95;;;19.90;99.90;;;;;;5035006;28;20048;-70
2023/09/09 07:05:08;;;;;;;13.43;12.00;;;20.00;99.90;;;;;;5033048;28;20384;-75
2023/09/09 07:07:33;;;;;;;15.43;12.48;;;20.10;99.90;;;;;;5031651;28;20359;-74
2023/09/09 07:09:59;;;;;;;13.75;12.23;;;20.20;99.90;;;;;;5033857;28;20040;-73
2023/09/09 07:12:25;;;;;;;20.55;12.52;;;20.30;99.90;;;;;;5030252;28;20431;-72
2023/09/09 07:14:51;;;;;;;14.88;11.40;;;20.50;99.90;;;;;;5031176;28;20025;-71
2023/09/09 07:17:17;;;;;;;15.02;11.75;;;20.60;99.90;;;;;;5043583;28;20075;-72
2023/09/09 07:19:42;;;;;;;12.90;10.93;;;20.70;99.90;;;;;;5055348;28;20037;-71
2023/09/09 07:22:08;;;;;;;12.35;11.05;;;20.90;99.90;;;;;;5046495;28;20032;-72
2023/09/09 07:24:33;;;;;;;12.90;11.60;;;20.90;99.90;;;;;;5044030;28;20114;-73
2023/09/09 07:27:03;;;;;;;12.82;11.07;;;21.00;99.90;;;;;;5044683;28;20116;-71
2023/09/09 07:29:29;;;;;;;11.43;10.27;;;21.10;99.90;;;;;;5039854;28;20040;-72
2023/09/09 07:31:54;;;;;;;19.63;12.73;;;21.20;99.90;;;;;;5033053;28;20042;-71
2023/09/09 07:34:20;;;;;;;15.88;11.07;;;21.40;99.90;;;;;;5031994;28;20393;-72
2023/09/09 07:36:47;;;;;;;13.68;11.93;;;21.50;99.90;;;;;;5031536;28;20188;-71
2023/09/09 07:39:13;;;;;;;12.73;11.38;;;21.60;99.90;;;;;;5033902;28;20048;-72
2023/09/09 07:41:39;;;;;;;14.25;11.30;;;21.70;99.90;;;;;;5031137;28;20089;-72
2023/09/09 07:44:05;;;;;;;11.57;10.23;;;21.80;99.90;;;;;;5031746;28;20064;-70
2023/09/09 07:46:30;;;;;;;14.57;12.18;;;21.90;99.90;;;;;;5030994;28;20056;-71
2023/09/09 07:48:56;;;;;;;15.65;10.52;;;22.10;99.90;;;;;;5026725;28;20124;-70
2023/09/09 07:51:21;;;;;;;13.18;10.38;;;22.10;99.90;;;;;;5030115;28;20049;-70
2023/09/09 07:53:47;;;;;;;14.77;10.45;;;22.20;99.90;;;;;;5029825;28;20028;-71
2023/09/09 07:56:13;;;;;;;13.30;11.20;;;22.30;99.90;;;;;;5031200;28;20466;-71
2023/09/09 07:58:38;;;;;;;15.13;10.82;;;22.40;99.90;;;;;;5029483;28;20118;-71
2023/09/09 08:01:08;;;;;;;12.40;10.68;;;22.50;99.90;;;;;;5030927;28;20108;-71
2023/09/09 08:03:34;;;;;;;13.80;12.00;;;22.70;99.90;;;;;;5029657;28;20025;-72
2023/09/09 08:06:06;;;;;;;12.63;10.85;;;22.80;99.90;;;;;;5026768;28;20041;-69
2023/09/09 08:08:32;;;;;;;15.68;10.23;;;22.90;99.90;;;;;;5021156;28;20121;-74
2023/09/09 08:10:58;;;;;;;15.07;11.20;;;23.00;99.90;;;;;;5030516;28;20026;-70
2023/09/09 08:13:25;;;;;;;11.60;9.82;;;23.10;99.90;;;;;;5030430;28;20021;-70
2023/09/09 08:15:51;;;;;;;14.18;10.40;;;23.20;99.90;;;;;;5030222;28;20040;-71
2023/09/09 08:18:16;;;;;;;11.50;10.13;;;23.30;99.90;;;;;;5030191;28;20030;-71
2023/09/09 08:20:42;;;;;;;11.13;9.88;;;23.30;99.90;;;;;;5030104;28;20053;-71
2023/09/09 08:23:08;;;;;;;12.82;11.05;;;23.40;99.90;;;;;;5027102;28;20481;-71
2023/09/09 08:25:34;;;;;;;11.57;9.90;;;23.60;99.90;;;;;;5028638;28;20740;-71
2023/09/09 08:28:01;;;;;;;14.57;11.15;;;23.80;99.90;;;;;;5030359;28;20048;-70
2023/09/09 08:30:27;;;;;;;12.63;10.05;;;23.90;99.90;;;;;;5030544;28;20497;-69
2023/09/09 08:32:53;;;;;;;11.23;9.38;;;24.00;99.90;;;;;;5029298;28;20041;-69
2023/09/09 08:35:19;;;;;;;12.43;11.13;;;24.10;99.90;;;;;;5030089;28;20549;-69
2023/09/09 08:37:45;;;;;;;14.30;11.32;;;24.20;99.90;;;;;;5026904;28;20029;-70
2023/09/09 08:40:11;;;;;;;12.40;10.63;;;24.20;99.90;;;;;;5031192;28;20033;-69
2023/09/09 08:42:45;;;;;;;12.15;10.35;;;24.30;99.90;;;;;;5033493;28;20423;-70
2023/09/09 08:45:26;;;;;;;12.63;10.27;;;24.40;99.90;;;;;;5032089;28;20036;-69
2023/09/09 08:47:55;;;;;;;13.23;10.55;;;24.50;99.90;;;;;;5031188;28;20223;-69
2023/09/09 08:50:24;;;;;;;11.85;10.10;;;24.60;99.90;;;;;;5034381;28;20033;-69
2023/09/09 08:52:53;;;;;;;20.27;11.65;;;24.70;99.90;;;;;;5030270;28;20278;-69
2023/09/09 08:55:19;;;;;;;12.93;9.43;;;24.80;99.90;;;;;;5029352;28;20108;-69
2023/09/09 08:57:46;;;;;;;12.18;9.00;;;24.90;99.90;;;;;;5029444;28;20061;-69
2023/09/09 09:00:13;;;;;;;13.70;10.90;;;25.00;99.90;;;;;;5029938;28;20544;-69
2023/09/09 09:02:39;;;;;;;11.88;9.95;;;25.10;99.90;;;;;;5032454;28;20022;-70
2023/09/09 09:05:07;;;;;;;11.65;10.45;;;25.30;99.90;;;;;;5030600;28;20036;-70
2023/09/09 09:07:34;;;;;;;12.98;9.60;;;25.40;99.90;;;;;;5032637;28;20033;-73
2023/09/09 09:10:00;;;;;;;11.45;10.25;;;25.40;99.90;;;;;;5033480;28;20099;-69
2023/09/09 09:12:28;;;;;;;14.80;10.50;;;25.60;99.90;;;;;;5033532;28;20443;-68
2023/09/09 09:14:54;;;;;;;9.95;9.05;;;25.70;99.90;;;;;;5028895;28;20042;-70
2023/09/09 09:17:20;;;;;;;21.75;10.43;;;25.80;99.90;;;;;;5032645;28;20034;-69
2023/09/09 09:19:46;;;;;;;11.05;9.18;;;25.90;99.90;;;;;;5031424;28;20033;-69
2023/09/09 09:22:14;;;;;;;13.48;10.05;;;26.00;99.90;;;;;;5030906;28;20107;-68
2023/09/09 09:24:44;;;;;;;12.82;9.27;;;26.20;99.90;;;;;;5031545;28;20497;-69
2023/09/09 09:27:14;;;;;;;14.90;10.85;;;26.20;99.90;;;;;;5033652;28;20091;-70
2023/09/09 09:29:41;;;;;;;13.57;9.70;;;26.30;99.90;;;;;;5029263;28;20025;-72
2023/09/09 09:32:10;;;;;;;10.45;8.98;;;26.40;99.90;;;;;;5033110;28;20030;-71
2023/09/09 09:34:36;;;;;;;10.90;9.70;;;26.40;99.90;;;;;;5029738;28;20029;-72
2023/09/09 09:37:12;;;;;;;11.10;9.55;;;26.60;99.90;;;;;;5033048;28;20382;-72
2023/09/09 09:39:38;;;;;;;12.23;9.65;;;26.70;99.90;;;;;;5027215;28;20041;-71
2023/09/09 09:42:04;;;;;;;12.98;10.05;;;26.80;99.90;;;;;;5032921;28;20033;-73
2023/09/09 09:44:33;;;;;;;12.57;9.52;;;26.10;99.90;;;;;;5032347;28;20021;-73
2023/09/09 09:47:03;;;;;;;9.98;8.98;;;27.00;99.90;;;;;;5033586;28;20021;-69
2023/09/09 09:49:39;;;;;;;11.07;9.40;;;27.00;99.90;;;;;;5031935;28;20075;-70
2023/09/09 09:52:06;;;;;;;12.57;10.00;;;27.20;99.90;;;;;;5027403;28;21234;-70
2023/09/09 09:54:33;;;;;;;14.63;9.40;;;27.30;99.90;;;;;;5031672;28;20028;-70
2023/09/09 09:57:03;;;;;;;8.73;7.93;;;27.40;99.90;;;;;;5032933;28;20053;-71
2023/09/09 09:59:31;;;;;;;10.90;7.93;;;27.40;99.90;;;;;;5033083;28;20033;-70
2023/09/09 10:01:58;;;;;;;9.60;8.27;;;27.50;99.90;;;;;;5031885;28;20119;-74
2023/09/09 10:04:26;;;;;;;15.05;8.90;;;27.60;99.90;;;;;;5030905;28;20037;-68
2023/09/09 10:06:56;;;;;;;11.23;9.10;;;27.80;99.90;;;;;;5032076;28;20021;-68
2023/09/09 10:09:37;;;;;;;9.20;8.02;;;27.90;99.90;;;;;;5014622;28;20044;-68
2023/09/09 10:12:29;;;;;;;8.07;7.25;;;27.90;99.90;;;;;;5030260;28;20043;-68
2023/09/09 10:14:56;;;;;;;8.35;7.55;;;28.00;99.90;;;;;;5025814;28;20068;-69
2023/09/09 10:17:22;;;;;;;9.85;8.27;;;28.00;99.90;;;;;;5032194;28;20036;-68
2023/09/09 10:19:53;;;;;;;9.80;8.15;;;28.10;99.90;;;;;;5022181;28;20029;-68
2023/09/09 10:22:20;;;;;;;10.80;7.88;;;28.30;99.90;;;;;;5032534;28;20041;-71
2023/09/09 10:24:48;;;;;;;8.80;7.90;;;28.40;99.90;;;;;;5026701;28;20064;-72
2023/09/09 10:27:17;;;;;;;9.68;8.48;;;28.60;99.90;;;;;;5032668;28;20121;-72
2023/09/09 10:29:44;;;;;;;10.52;8.27;;;28.70;99.90;;;;;;5031460;28;20048;-67
2023/09/09 10:32:12;;;;;;;9.77;7.93;;;28.80;99.90;;;;;;5032655;28;20025;-67
2023/09/09 10:34:39;;;;;;;9.02;6.60;;;28.90;99.90;;;;;;5031503;28;20060;-67
2023/09/09 10:37:07;;;;;;;15.05;8.30;;;29.00;99.90;;;;;;5031759;28;20510;-67
2023/09/09 10:39:33;;;;;;;10.80;9.00;;;29.10;99.90;;;;;;5031670;28;20037;-67
2023/09/09 10:42:00;;;;;;;11.65;8.10;;;29.10;99.90;;;;;;5028023;28;20025;-68
2023/09/09 10:44:25;;;;;;;12.10;8.82;;;29.00;99.90;;;;;;5032230;28;20097;-67
2023/09/09 10:46:55;;;;;;;10.48;8.18;;;29.00;99.90;;;;;;5031656;28;20108;-67
2023/09/09 10:49:26;;;;;;;;;;;29.00;99.90;;;;;;5032255;28;20026;-68
2023/09/09 10:51:51;;;;;;;10.77;7.07;;;29.00;99.90;;;;;;5031662;28;20545;-68
2023/09/09 10:54:19;;;;;;;11.98;7.97;;;29.00;99.80;;;;;;5027437;28;20053;-68
2023/09/09 10:57:06;;;;;;;13.85;7.82;;;29.10;99.80;;;;;;5031373;28;20116;-68
2023/09/09 10:59:32;;;;;;;12.07;7.90;;;29.20;99.70;;;;;;5026526;28;20033;-68
2023/09/09 11:02:18;;;;;;;12.98;8.60;;;29.40;99.50;;;;;;5032121;28;20022;-68
2023/09/09 11:04:57;;;;;;;8.10;7.30;;;29.50;99.30;;;;;;5031002;28;20026;-68
2023/09/09 11:07:23;;;;;;;11.75;7.32;;;29.40;99.50;;;;;;5031474;28;20408;-68
2023/09/09 11:09:51;;;;;;;10.57;8.45;;;29.50;99.20;;;;;;5026102;28;20720;-68
2023/09/09 11:12:17;;;;;;;11.43;7.80;;;29.50;99.20;;;;;;5031803;28;20079;-68
2023/09/09 11:14:58;;;;;;;14.43;8.13;;;29.50;98.70;;;;;;5030253;28;20029;-68
2023/09/09 11:17:27;;;;;;;10.15;6.82;;;29.60;99.90;;;;;;5031385;28;20124;-67
2023/09/09 11:19:55;;;;;;;10.27;7.50;;;;;;;;;;5030416;28;20017;-68
2023/09/09 11:22:23;;;;;;;10.07;6.60;;;;;;;;;;5031780;28;20413;-68
2023/09/09 11:24:52;;;;;;;13.15;6.63;;;;;;;;;;5029636;28;20108;-67
2023/09/09 11:27:22;;;;;;;7.17;6.20;;;;;;;;;;5026128;28;20470;-68
2023/09/09 11:29:53;;;;;;;9.90;6.90;;;;;;;;;;5029347;28;20057;-67
2023/09/09 11:32:31;;;;;;;9.10;6.38;;;;;;;;;;5030799;28;20105;-68
2023/09/09 11:34:57;;;;;;;11.38;6.63;;;;;;;;;;5030016;28;20056;-67
2023/09/09 11:37:26;;;;;;;9.30;7.97;;;;;;;;;;5031090;28;20401;-68
2023/09/09 11:39:53;;;;;;;9.73;6.43;;;;;;;;;;5029885;28;20558;-68
2023/09/09 11:42:19;;;;;;;8.00;5.47;;;;;;;;;;5030868;28;20040;-68
2023/09/09 11:44:46;;;;;;;9.77;6.10;;;;;;;;;;5029713;28;20104;-68
2023/09/09 11:47:13;;;;;;;7.22;6.10;;;;;;;;;;5031385;28;20033;-67
2023/09/09 11:49:42;;;;;;;15.98;6.45;;;;;;;;;;5029585;28;20029;-67
2023/09/09 11:52:08;;;;;;;8.10;4.93;;;;;;;;;;5025439;28;20036;-68
2023/09/09 11:54:34;;;;;;;8.55;4.82;;;;;;;;;;5027913;28;20724;-68
2023/09/09 11:57:07;;;;;;;10.98;5.28;;;;;;;;;;5029447;28;20033;-68
2023/09/09 11:59:46;;;;;;;10.57;6.38;;;;;;;;;;5027758;28;20040;-69
2023/09/09 12:02:19;;;;;;;8.13;6.53;;;;;;;;;;5021633;28;20102;-68
2023/09/09 12:04:58;;;;;;;10.57;5.68;;;30.70;99.90;;;;;;5025181;28;20017;-68
2023/09/09 12:07:29;;;;;;;8.38;5.40;;;31.00;93.70;;;;;;5028796;28;20068;-68
2023/09/09 12:09:56;;;;;;;16.73;5.55;;;31.10;93.20;;;;;;5028232;28;20021;-68
2023/09/09 12:12:22;;;;;;;11.13;5.65;;;31.10;93.20;;;;;;5029064;28;20021;-68
2023/09/09 12:14:49;;;;;;;13.02;6.00;;;31.20;93.00;;;;;;5028280;28;20036;-68
2023/09/09 12:17:15;;;;;;;13.80;6.15;;;31.20;93.00;;;;;;5029858;28;20030;-68
2023/09/09 12:19:40;;;;;;;14.13;5.95;;;31.10;92.40;;;;;;5010301;28;20021;-68
2023/09/09 12:22:06;;;;;;;10.38;5.55;;;31.00;92.40;;;;;;5028881;28;20056;-68
2023/09/09 12:24:41;;;;;;;14.20;6.50;;;30.90;92.70;;;;;;5027899;28;20111;-68
2023/09/09 12:27:07;;;;;;;8.32;5.75;;;30.90;92.80;;;;;;5029728;28;20064;-68
2023/09/09 12:29:33;;;;;;;10.23;5.72;;;31.00;92.80;;;;;;5028267;28;20037;-69
2023/09/09 12:31:59;;;;;;;14.48;6.28;;;31.10;92.60;;;;;;5029395;28;20049;-68
2023/09/09 12:34:25;;;;;;;15.52;6.05;;;31.20;92.40;;;;;;5029070;28;20163;-69
2023/09/09 12:36:57;;;;;;;13.82;5.50;;;31.30;92.00;;;;;;5016878;28;20606;-68
2023/09/09 12:39:28;;;;;;;13.32;5.57;;;31.30;92.50;;;;;;5008729;28;20030;-68
2023/09/09 12:42:05;;;;;;;19.20;5.72;;;31.30;92.30;;;;;;5028840;28;20052;-68